createdAt,value
2023-03-16T00:01:06.935Z,4.06
2023-03-16T00:03:36.764Z,4.05
2023-03-16T00:06:05.144Z,4.06
2023-03-16T00:08:33.186Z,4.02
2023-03-16T00:11:02.848Z,3.97
2023-03-16T00:13:32.736Z,3.99
2023-03-16T00:16:04.606Z,4.04
2023-03-16T00:18:39.109Z,4.05
2023-03-16T00:21:07.821Z,4.03
2023-03-16T00:23:36.311Z,4.02
2023-03-16T00:26:06.227Z,4.00
2023-03-16T00:28:35.630Z,3.95
2023-03-16T00:31:05.260Z,3.87
2023-03-16T00:33:36.184Z,3.84
2023-03-16T00:36:09.543Z,3.82
2023-03-16T00:38:39.716Z,3.79
2023-03-16T00:41:09.365Z,3.75
2023-03-16T00:43:44.880Z,3.71
2023-03-16T00:46:15.458Z,3.68
2023-03-16T00:48:46.751Z,3.64
2023-03-16T00:51:17.534Z,3.61
2023-03-16T00:53:46.798Z,3.58
2023-03-16T00:56:15.480Z,3.56
2023-03-16T00:58:44.066Z,3.55
2023-03-16T01:01:15.092Z,3.56
2023-03-16T01:03:43.407Z,3.56
2023-03-16T01:06:13.325Z,3.57
2023-03-16T01:08:43.769Z,3.58
2023-03-16T01:11:16.586Z,3.59
2023-03-16T01:13:47.375Z,3.61
2023-03-16T01:16:16.299Z,3.57
2023-03-16T01:18:45.165Z,3.53
2023-03-16T01:21:16.278Z,3.53
2023-03-16T01:23:45.109Z,3.51
2023-03-16T01:26:16.664Z,3.47
2023-03-16T01:28:45.459Z,3.40
2023-03-16T01:31:17.280Z,3.38
2023-03-16T01:33:45.808Z,3.35
2023-03-16T01:36:19.204Z,3.34
2023-03-16T01:38:52.717Z,3.37
2023-03-16T01:41:22.319Z,3.39
2023-03-16T01:43:52.248Z,3.37
2023-03-16T01:46:22.723Z,3.35
2023-03-16T01:49:00.370Z,3.34
2023-03-16T01:51:45.344Z,3.37
2023-03-16T01:54:15.864Z,3.40
2023-03-16T01:56:50.552Z,3.38
2023-03-16T01:59:21.389Z,3.38
2023-03-16T02:01:52.049Z,3.36
2023-03-16T02:04:35.490Z,3.43
2023-03-16T02:07:05.525Z,3.53
2023-03-16T02:09:36.256Z,3.57
2023-03-16T02:12:05.150Z,3.56
2023-03-16T02:14:34.353Z,3.53
2023-03-16T02:17:03.043Z,3.56
2023-03-16T02:19:42.546Z,3.56
2023-03-16T02:22:11.054Z,3.59
2023-03-16T02:24:39.150Z,3.58
2023-03-16T02:27:17.970Z,3.55
2023-03-16T02:30:05.085Z,3.57
2023-03-16T02:32:38.499Z,3.60
2023-03-16T02:35:08.101Z,3.55
2023-03-16T02:37:36.280Z,3.49
2023-03-16T02:40:17.426Z,3.42
2023-03-16T02:42:54.953Z,3.40
2023-03-16T02:45:26.601Z,3.37
2023-03-16T02:47:55.496Z,3.34
2023-03-16T02:50:23.880Z,3.29
2023-03-16T02:52:51.968Z,3.28
2023-03-16T02:55:21.884Z,3.25
2023-03-16T02:57:50.156Z,3.24
2023-03-16T03:00:19.405Z,3.22
2023-03-16T03:02:50.260Z,3.21
2023-03-16T03:05:18.482Z,3.22
2023-03-16T03:07:46.762Z,3.23
2023-03-16T03:10:15.768Z,3.21
2023-03-16T03:12:44.249Z,3.20
2023-03-16T03:15:12.324Z,3.18
2023-03-16T03:17:50.225Z,3.17
2023-03-16T03:20:19.707Z,3.17
2023-03-16T03:22:49.556Z,3.20
2023-03-16T03:25:18.758Z,3.23
2023-03-16T03:27:47.693Z,3.26
2023-03-16T03:30:19.315Z,3.25
2023-03-16T03:32:49.263Z,3.26
2023-03-16T03:35:20.134Z,3.28
2023-03-16T03:37:48.559Z,3.30
2023-03-16T03:40:18.380Z,3.31
2023-03-16T03:42:49.219Z,3.32
2023-03-16T03:45:18.524Z,3.33
2023-03-16T03:47:47.314Z,3.31
2023-03-16T03:50:19.383Z,3.32
2023-03-16T03:52:56.777Z,3.33
2023-03-16T03:55:25.055Z,3.36
2023-03-16T03:57:53.131Z,3.33
2023-03-16T04:00:22.252Z,3.30
2023-03-16T04:02:51.808Z,3.28
2023-03-16T04:05:32.202Z,3.27
2023-03-16T04:08:00.483Z,3.31
2023-03-16T04:10:29.832Z,3.36
2023-03-16T04:12:59.606Z,3.38
2023-03-16T04:15:28.820Z,3.34
2023-03-16T04:18:20.524Z,3.30
2023-03-16T04:20:48.809Z,3.30
2023-03-16T04:23:20.671Z,3.37
2023-03-16T04:25:49.599Z,3.42
2023-03-16T04:28:19.078Z,3.49
2023-03-16T04:30:48.708Z,3.48
2023-03-16T04:33:21.882Z,3.47
2023-03-16T04:35:50.306Z,3.51
2023-03-16T04:38:18.860Z,3.54
2023-03-16T04:40:56.451Z,3.55
2023-03-16T04:43:28.112Z,3.54
2023-03-16T04:46:03.603Z,3.53
2023-03-16T04:48:35.316Z,3.50
2023-03-16T04:51:06.003Z,3.49
2023-03-16T04:53:36.488Z,3.44
2023-03-16T04:56:19.798Z,3.42
2023-03-16T04:58:52.088Z,3.42
2023-03-16T05:01:21.001Z,3.39
2023-03-16T05:03:50.709Z,3.43
2023-03-16T05:06:19.283Z,3.45
2023-03-16T05:08:47.681Z,3.47
2023-03-16T05:11:16.152Z,3.47
2023-03-16T05:13:52.727Z,3.48
2023-03-16T05:16:21.434Z,3.44
2023-03-16T05:18:50.312Z,3.43
2023-03-16T05:21:19.005Z,3.44
2023-03-16T05:24:00.288Z,3.40
2023-03-16T05:26:28.774Z,3.39
2023-03-16T05:28:58.490Z,3.44
2023-03-16T05:31:29.073Z,3.41
2023-03-16T05:33:59.969Z,3.36
2023-03-16T05:36:28.139Z,3.31
2023-03-16T05:39:00.118Z,3.28
2023-03-16T05:41:34.531Z,3.30
2023-03-16T05:44:08.644Z,3.33
2023-03-16T05:46:52.709Z,3.35
2023-03-16T05:49:21.094Z,3.33
2023-03-16T05:51:50.597Z,3.30
2023-03-16T05:54:19.072Z,3.30
2023-03-16T05:56:47.562Z,3.30
2023-03-16T05:59:18.326Z,3.30
2023-03-16T06:01:50.872Z,3.35
2023-03-16T06:04:22.084Z,3.42
2023-03-16T06:06:50.408Z,3.42
2023-03-16T06:09:22.589Z,3.46
2023-03-16T06:11:51.674Z,3.50
2023-03-16T06:14:20.163Z,3.55
2023-03-16T06:16:48.543Z,3.58
2023-03-16T06:19:17.861Z,3.61
2023-03-16T06:21:46.886Z,3.65
2023-03-16T06:24:15.340Z,3.74
2023-03-16T06:26:43.828Z,3.75
2023-03-16T06:29:13.332Z,3.76
2023-03-16T06:31:42.291Z,3.72
2023-03-16T06:34:11.855Z,3.69
2023-03-16T06:36:40.433Z,3.74
2023-03-16T06:39:11.582Z,3.79
2023-03-16T06:41:43.243Z,3.86
2023-03-16T06:44:13.363Z,3.95
2023-03-16T06:46:48.502Z,4.03
2023-03-16T06:49:17.397Z,4.09
2023-03-16T06:51:45.988Z,4.10
2023-03-16T06:54:14.370Z,4.06
2023-03-16T06:56:42.549Z,4.04
2023-03-16T06:59:11.345Z,3.96
2023-03-16T07:01:39.527Z,3.90
2023-03-16T07:04:08.312Z,3.85
2023-03-16T07:06:36.494Z,3.84
2023-03-16T07:09:05.712Z,3.93
2023-03-16T07:11:34.082Z,4.00
2023-03-16T07:14:02.982Z,4.15
2023-03-16T07:16:32.550Z,4.26
2023-03-16T07:19:03.016Z,4.30
2023-03-16T07:21:39.452Z,4.25
2023-03-16T07:24:10.640Z,4.15
2023-03-16T07:26:39.125Z,4.19
2023-03-16T07:29:07.711Z,4.30
2023-03-16T07:31:36.534Z,4.37
2023-03-16T07:34:08.879Z,4.42
2023-03-16T07:36:44.234Z,4.50
2023-03-16T07:39:14.549Z,4.59
2023-03-16T07:41:44.327Z,4.59
2023-03-16T07:44:17.979Z,4.56
2023-03-16T07:46:49.327Z,4.52
2023-03-16T07:49:17.605Z,4.52
2023-03-16T07:51:46.410Z,4.58
2023-03-16T07:54:15.193Z,4.52
2023-03-16T07:56:49.348Z,4.55
2023-03-16T07:59:27.413Z,4.56
2023-03-16T08:01:55.801Z,4.57
2023-03-16T08:04:25.166Z,4.52
2023-03-16T08:06:59.936Z,4.50
2023-03-16T08:09:32.113Z,4.46
2023-03-16T08:12:00.590Z,4.37
2023-03-16T08:14:29.280Z,4.30
2023-03-16T08:17:12.740Z,4.31
2023-03-16T08:19:42.941Z,4.35
2023-03-16T08:22:12.668Z,4.41
2023-03-16T08:24:44.108Z,4.49
2023-03-16T08:27:13.529Z,4.52
2023-03-16T08:29:43.746Z,4.53
2023-03-16T08:32:14.991Z,4.45
2023-03-16T08:34:46.345Z,4.45
2023-03-16T08:37:14.940Z,4.48
2023-03-16T08:39:44.037Z,4.51
2023-03-16T08:42:15.608Z,4.52
2023-03-16T08:44:50.117Z,4.57
2023-03-16T08:47:18.291Z,4.61
2023-03-16T08:49:47.101Z,4.68
2023-03-16T08:52:17.226Z,4.67
2023-03-16T08:55:01.475Z,4.65
2023-03-16T08:57:31.680Z,4.67
2023-03-16T09:00:00.525Z,4.62
2023-03-16T09:02:28.974Z,4.58
2023-03-16T09:04:57.449Z,4.58
2023-03-16T09:07:26.345Z,4.57
2023-03-16T09:09:54.727Z,4.54
2023-03-16T09:12:23.726Z,4.57
2023-03-16T09:14:52.110Z,4.56
2023-03-16T09:17:21.109Z,4.56
2023-03-16T09:19:52.718Z,4.61
2023-03-16T09:22:22.375Z,4.66
2023-03-16T09:24:51.578Z,4.73
2023-03-16T09:27:21.036Z,4.75
2023-03-16T09:29:50.811Z,4.73
2023-03-16T09:32:19.195Z,4.76
2023-03-16T09:34:47.583Z,4.77
2023-03-16T09:37:16.577Z,4.77
2023-03-16T09:39:45.983Z,4.77
2023-03-16T09:42:17.527Z,4.82
2023-03-16T09:44:55.574Z,4.82
2023-03-16T09:47:29.759Z,4.82
2023-03-16T09:50:00.187Z,4.86
2023-03-16T09:52:34.205Z,4.92
2023-03-16T09:55:02.794Z,4.97
2023-03-16T09:57:35.714Z,4.99
2023-03-16T10:00:14.403Z,5.00
2023-03-16T10:02:46.057Z,4.96
2023-03-16T10:05:17.220Z,4.92
2023-03-16T10:07:45.493Z,4.94
2023-03-16T10:10:14.797Z,4.96
2023-03-16T10:12:46.209Z,4.94
2023-03-16T10:15:16.977Z,4.97
2023-03-16T10:18:06.860Z,5.02
2023-03-16T10:20:35.242Z,5.04
2023-03-16T10:23:14.226Z,5.00
2023-03-16T10:25:42.550Z,5.00
2023-03-16T10:28:16.155Z,5.01
2023-03-16T10:30:44.847Z,5.03
2023-03-16T10:33:27.269Z,5.03
2023-03-16T10:35:58.320Z,5.05
2023-03-16T10:38:43.076Z,5.10
2023-03-16T10:41:31.662Z,5.12
2023-03-16T10:44:10.281Z,5.13
2023-03-16T10:46:40.029Z,5.09
2023-03-16T10:49:28.780Z,5.09
2023-03-16T10:51:59.783Z,5.14
2023-03-16T10:54:35.835Z,5.16
2023-03-16T10:57:36.508Z,5.17
2023-03-16T11:00:15.023Z,5.19
2023-03-16T11:02:44.434Z,5.19
2023-03-16T11:05:13.883Z,5.18
2023-03-16T11:07:50.117Z,5.14
2023-03-16T11:10:25.243Z,5.16
2023-03-16T11:12:54.400Z,5.22
2023-03-16T11:15:26.161Z,5.24
2023-03-16T11:17:55.005Z,5.28
2023-03-16T11:20:32.233Z,5.34
2023-03-16T11:23:01.092Z,5.39
2023-03-16T11:25:32.029Z,5.42
2023-03-16T11:28:12.282Z,5.43
2023-03-16T11:30:43.979Z,5.45
2023-03-16T11:33:14.247Z,5.44
2023-03-16T11:35:57.980Z,5.45
2023-03-16T11:38:27.210Z,5.49
2023-03-16T11:41:24.007Z,5.55
2023-03-16T11:44:05.132Z,5.55
2023-03-16T11:46:42.249Z,5.57
2023-03-16T11:49:13.558Z,5.59
2023-03-16T11:52:11.405Z,5.59
2023-03-16T11:54:52.070Z,5.61
2023-03-16T11:57:20.581Z,5.68
2023-03-16T12:00:07.764Z,5.75
2023-03-16T12:02:36.277Z,5.76
2023-03-16T12:05:14.772Z,5.78
2023-03-16T12:07:43.253Z,5.74
2023-03-16T12:10:34.554Z,5.72
2023-03-16T12:13:23.097Z,5.67
2023-03-16T12:15:54.768Z,5.69
2023-03-16T12:18:32.250Z,5.72
2023-03-16T12:21:06.368Z,5.74
2023-03-16T12:23:49.892Z,5.69
2023-03-16T12:26:19.513Z,5.58
2023-03-16T12:28:48.564Z,5.57
2023-03-16T12:31:27.888Z,5.59
2023-03-16T12:34:04.726Z,5.57
2023-03-16T12:36:39.141Z,5.58
2023-03-16T12:39:28.295Z,5.68
2023-03-16T12:42:20.937Z,5.78
2023-03-16T12:45:02.417Z,5.83
2023-03-16T12:47:46.666Z,5.84
2023-03-16T12:50:16.990Z,5.84
2023-03-16T12:52:50.089Z,5.83
2023-03-16T12:55:19.898Z,5.83
2023-03-16T12:57:58.315Z,5.83
2023-03-16T13:00:36.054Z,5.85
2023-03-16T13:03:05.934Z,5.86
2023-03-16T13:05:35.444Z,5.89
2023-03-16T13:08:06.998Z,5.92
2023-03-16T13:10:35.589Z,5.94
2023-03-16T13:13:15.249Z,5.95
2023-03-16T13:15:47.667Z,5.92
2023-03-16T13:18:17.218Z,5.91
2023-03-16T13:20:52.380Z,5.86
2023-03-16T13:23:23.433Z,5.84
2023-03-16T13:26:03.414Z,5.83
2023-03-16T13:28:33.474Z,5.82
2023-03-16T13:31:02.946Z,5.79
2023-03-16T13:33:33.989Z,5.80
2023-03-16T13:36:04.728Z,5.78
2023-03-16T13:38:33.161Z,5.73
2023-03-16T13:41:09.216Z,5.71
2023-03-16T13:43:44.351Z,5.68
2023-03-16T13:46:16.272Z,5.64
2023-03-16T13:48:45.289Z,5.61
2023-03-16T13:51:16.459Z,5.60
2023-03-16T13:53:45.365Z,5.60
2023-03-16T13:56:18.143Z,5.60
2023-03-16T13:58:48.529Z,5.58
2023-03-16T14:01:37.596Z,5.57
2023-03-16T14:04:14.007Z,5.58
2023-03-16T14:06:51.802Z,5.59
2023-03-16T14:09:22.027Z,5.59
2023-03-16T14:11:50.198Z,5.60
2023-03-16T14:14:39.454Z,5.60
2023-03-16T14:17:12.663Z,5.61
2023-03-16T14:19:51.790Z,5.60
2023-03-16T14:22:23.594Z,5.56
2023-03-16T14:24:53.926Z,5.56
2023-03-16T14:27:42.522Z,5.57
2023-03-16T14:30:17.006Z,5.57
2023-03-16T14:33:14.497Z,5.57
2023-03-16T14:35:43.724Z,5.59
2023-03-16T14:38:22.733Z,5.62
2023-03-16T14:40:58.692Z,5.62
2023-03-16T14:43:32.899Z,5.60
2023-03-16T14:46:04.090Z,5.61
2023-03-16T14:48:33.004Z,5.60
2023-03-16T14:51:03.274Z,5.60
2023-03-16T14:53:32.075Z,5.59
2023-03-16T14:56:00.244Z,5.56
2023-03-16T14:58:28.330Z,5.54
2023-03-16T15:00:56.500Z,5.52
2023-03-16T15:03:30.625Z,5.52
2023-03-16T15:06:00.541Z,5.53
2023-03-16T15:08:32.423Z,5.53
2023-03-16T15:11:03.359Z,5.52
2023-03-16T15:13:35.307Z,5.50
2023-03-16T15:16:04.726Z,5.48
2023-03-16T15:18:33.701Z,5.49
2023-03-16T15:21:03.008Z,5.50
2023-03-16T15:23:31.306Z,5.48
2023-03-16T15:26:00.813Z,5.45
2023-03-16T15:28:29.643Z,5.43
2023-03-16T15:30:59.399Z,5.42
2023-03-16T15:33:28.011Z,5.40
2023-03-16T15:35:57.848Z,5.36
2023-03-16T15:38:36.564Z,5.36
2023-03-16T15:41:09.230Z,5.35
2023-03-16T15:43:37.615Z,5.35
2023-03-16T15:46:06.479Z,5.34
2023-03-16T15:48:35.183Z,5.35
2023-03-16T15:51:17.972Z,5.35
2023-03-16T15:53:49.999Z,5.37
2023-03-16T15:56:22.268Z,5.39
2023-03-16T15:58:50.942Z,5.39
2023-03-16T16:01:23.685Z,5.41
2023-03-16T16:03:52.467Z,5.42
2023-03-16T16:06:21.008Z,5.43
2023-03-16T16:08:49.289Z,5.42
2023-03-16T16:11:21.974Z,5.42
2023-03-16T16:13:50.963Z,5.38
2023-03-16T16:16:20.006Z,5.36
2023-03-16T16:18:48.580Z,5.34
2023-03-16T16:21:29.169Z,5.33
2023-03-16T16:23:57.610Z,5.32
2023-03-16T16:26:46.903Z,5.31
2023-03-16T16:29:18.831Z,5.30
2023-03-16T16:31:47.085Z,5.28
2023-03-16T16:34:17.325Z,5.28
2023-03-16T16:36:45.986Z,5.29
2023-03-16T16:39:14.617Z,5.27
2023-03-16T16:41:43.509Z,5.28
2023-03-16T16:44:17.128Z,5.28
2023-03-16T16:46:45.315Z,5.27
2023-03-16T16:49:22.793Z,5.25
2023-03-16T16:51:51.653Z,5.23
2023-03-16T16:54:21.464Z,5.21
2023-03-16T16:56:51.324Z,5.21
2023-03-16T16:59:19.400Z,5.19
2023-03-16T17:01:50.747Z,5.19
2023-03-16T17:04:23.362Z,5.17
2023-03-16T17:06:55.746Z,5.16
2023-03-16T17:09:25.317Z,5.15
2023-03-16T17:11:56.280Z,5.16
2023-03-16T17:14:27.819Z,5.15
2023-03-16T17:16:57.208Z,5.15
2023-03-16T17:19:28.890Z,5.15
2023-03-16T17:21:57.882Z,5.15
2023-03-16T17:24:26.368Z,5.16
2023-03-16T17:26:59.381Z,5.17
2023-03-16T17:29:30.194Z,5.17
2023-03-16T17:31:59.808Z,5.20
2023-03-16T17:34:29.060Z,5.20
2023-03-16T17:36:57.301Z,5.20
2023-03-16T17:39:27.242Z,5.20
2023-03-16T17:42:00.004Z,5.20
2023-03-16T17:44:33.200Z,5.20
2023-03-16T17:47:01.784Z,5.20
2023-03-16T17:49:31.086Z,5.18
2023-03-16T17:51:59.372Z,5.15
2023-03-16T17:54:28.472Z,5.13
2023-03-16T17:56:57.160Z,5.13
2023-03-16T17:59:26.060Z,5.11
2023-03-16T18:01:54.390Z,5.08
2023-03-16T18:04:24.159Z,5.10
2023-03-16T18:06:53.018Z,5.09
2023-03-16T18:09:21.243Z,5.06
2023-03-16T18:11:51.378Z,5.06
2023-03-16T18:14:37.223Z,5.07
2023-03-16T18:17:27.832Z,5.08
2023-03-16T18:19:56.114Z,5.09
2023-03-16T18:22:25.118Z,5.10
2023-03-16T18:24:54.118Z,5.10
2023-03-16T18:27:22.594Z,5.10
2023-03-16T18:29:50.608Z,5.10
2023-03-16T18:32:23.047Z,5.06
2023-03-16T18:34:52.713Z,5.03
2023-03-16T18:37:23.174Z,5.01
2023-03-16T18:39:52.415Z,5.02
2023-03-16T18:42:22.426Z,5.03
2023-03-16T18:44:51.725Z,5.03
2023-03-16T18:47:22.173Z,4.99
2023-03-16T18:49:53.613Z,4.94
2023-03-16T18:52:24.145Z,4.91
2023-03-16T18:54:53.282Z,4.89
2023-03-16T18:57:26.607Z,4.88
2023-03-16T18:59:55.676Z,4.87
2023-03-16T19:02:33.033Z,4.83
2023-03-16T19:05:03.151Z,4.82
2023-03-16T19:07:36.861Z,4.82
2023-03-16T19:10:23.167Z,4.82
2023-03-16T19:12:52.761Z,4.84
2023-03-16T19:15:23.302Z,4.86
2023-03-16T19:17:51.938Z,4.86
2023-03-16T19:20:21.807Z,4.86
2023-03-16T19:22:51.371Z,4.87
2023-03-16T19:25:31.463Z,4.88
2023-03-16T19:28:00.271Z,4.84
2023-03-16T19:30:29.668Z,4.83
2023-03-16T19:32:58.531Z,4.84
2023-03-16T19:35:44.266Z,4.85
2023-03-16T19:38:16.213Z,4.85
2023-03-16T19:40:45.119Z,4.85
2023-03-16T19:43:19.809Z,4.85
2023-03-16T19:45:49.163Z,4.83
2023-03-16T19:48:21.287Z,4.80
2023-03-16T19:50:50.555Z,4.78
2023-03-16T19:53:20.245Z,4.75
2023-03-16T19:55:51.711Z,4.74
2023-03-16T19:58:30.474Z,4.74
2023-03-16T20:00:59.300Z,4.73
2023-03-16T20:03:28.303Z,4.72
2023-03-16T20:05:56.391Z,4.71
2023-03-16T20:08:28.966Z,4.69
2023-03-16T20:11:03.181Z,4.67
2023-03-16T20:13:31.768Z,4.66
2023-03-16T20:16:00.729Z,4.63
2023-03-16T20:18:29.556Z,4.61
2023-03-16T20:20:57.839Z,4.60
2023-03-16T20:23:28.381Z,4.59
2023-03-16T20:26:02.840Z,4.57
2023-03-16T20:28:34.243Z,4.56
2023-03-16T20:31:02.866Z,4.54
2023-03-16T20:33:32.357Z,4.50
2023-03-16T20:36:00.758Z,4.47
2023-03-16T20:38:29.023Z,4.43
2023-03-16T20:40:58.112Z,4.41
2023-03-16T20:43:28.341Z,4.38
2023-03-16T20:45:59.238Z,4.33
2023-03-16T20:48:28.141Z,4.30
2023-03-16T20:50:57.388Z,4.24
2023-03-16T20:53:26.690Z,4.18
2023-03-16T20:55:56.627Z,4.11
2023-03-16T20:58:26.528Z,4.05
2023-03-16T21:01:01.251Z,4.02
2023-03-16T21:03:30.761Z,4.01
2023-03-16T21:05:59.949Z,4.01
2023-03-16T21:08:28.565Z,4.01
2023-03-16T21:10:59.601Z,4.02
2023-03-16T21:13:28.290Z,4.02
2023-03-16T21:15:57.941Z,4.03
2023-03-16T21:18:26.081Z,4.03
2023-03-16T21:20:56.334Z,4.03
2023-03-16T21:23:24.494Z,4.02
2023-03-16T21:26:03.934Z,3.99
2023-03-16T21:28:33.625Z,3.99
2023-03-16T21:31:03.144Z,3.98
2023-03-16T21:33:36.067Z,3.99
2023-03-16T21:36:06.418Z,3.98
2023-03-16T21:38:34.961Z,3.95
2023-03-16T21:41:03.038Z,3.88
2023-03-16T21:43:31.723Z,3.79
2023-03-16T21:46:00.208Z,3.72
2023-03-16T21:48:39.281Z,3.66
2023-03-16T21:51:14.784Z,3.62
2023-03-16T21:53:43.472Z,3.57
2023-03-16T21:56:18.171Z,3.49
2023-03-16T21:58:47.307Z,3.40
2023-03-16T22:01:26.274Z,3.32
2023-03-16T22:03:59.078Z,3.26
2023-03-16T22:06:30.884Z,3.20
2023-03-16T22:09:00.133Z,3.14
2023-03-16T22:11:29.612Z,3.08
2023-03-16T22:13:59.297Z,3.04
2023-03-16T22:16:28.323Z,2.97
2023-03-16T22:18:58.153Z,2.93
2023-03-16T22:21:28.878Z,2.90
2023-03-16T22:23:58.364Z,2.89
2023-03-16T22:26:27.843Z,2.88
2023-03-16T22:28:56.770Z,2.85
2023-03-16T22:31:33.657Z,2.82
2023-03-16T22:34:03.576Z,2.79
2023-03-16T22:36:33.203Z,2.77
2023-03-16T22:39:08.231Z,2.74
2023-03-16T22:41:36.808Z,2.72
2023-03-16T22:44:05.705Z,2.65
2023-03-16T22:46:33.793Z,2.59
2023-03-16T22:49:02.171Z,2.53
2023-03-16T22:51:34.748Z,2.45
2023-03-16T22:54:05.026Z,2.36
2023-03-16T22:56:34.586Z,2.30
2023-03-16T22:59:04.612Z,2.24
2023-03-16T23:01:38.640Z,2.18
2023-03-16T23:04:21.179Z,2.14
2023-03-16T23:06:52.828Z,2.11
2023-03-16T23:09:22.077Z,2.06
2023-03-16T23:11:53.916Z,2.03
2023-03-16T23:14:24.292Z,2.00
2023-03-16T23:16:52.842Z,1.99
2023-03-16T23:19:26.377Z,1.98
2023-03-16T23:21:56.723Z,1.98
2023-03-16T23:24:24.782Z,1.99
2023-03-16T23:26:53.576Z,1.99
2023-03-16T23:29:22.590Z,1.97
2023-03-16T23:31:51.448Z,1.93
2023-03-16T23:34:21.456Z,1.89
2023-03-16T23:36:50.286Z,1.82
2023-03-16T23:39:18.779Z,1.74
2023-03-16T23:41:48.947Z,1.70
2023-03-16T23:44:22.392Z,1.64
2023-03-16T23:46:51.599Z,1.57
2023-03-16T23:49:24.817Z,1.55
2023-03-16T23:51:53.594Z,1.56
2023-03-16T23:54:23.501Z,1.56
2023-03-16T23:56:52.094Z,1.58
2023-03-16T23:59:21.129Z,1.62
